Time;durP1;ratioP1;P1;durP2;ratioP2;P2;SDS_P1;SDS_P2;PMS_P1;PMS_P2;Temp;Humidity;BMP_temperature;BMP_pressure;BME280_temperature;BME280_humidity;BME280_pressure;Samples;Min_cycle;Max_cycle;Signal;HPM_P1;HPM_P2
2022/08/28 00:00:08;;;;;;;5.25;2.05;;;;;;;20.47;78.27;100720.84;8280998;28;20042;-53
2022/08/28 00:04:27;;;;;;;3.75;1.73;;;;;;;20.53;77.22;100726.41;8270439;28;20042;-50
2022/08/28 00:08:48;;;;;;;6.47;1.98;;;;;;;20.54;77.01;100721.75;8281091;28;20038;-49
2022/08/28 00:13:09;;;;;;;4.25;1.50;;;;;;;20.58;76.17;100718.41;8269771;28;20515;-49
2022/08/28 00:17:29;;;;;;;9.70;1.85;;;;;;;20.60;75.71;100720.94;8275799;28;20046;-51
2022/08/28 00:21:51;;;;;;;4.65;1.27;;;;;;;20.61;75.55;100733.63;8269959;28;20121;-49
2022/08/28 00:27:51;;;;;;;10.77;1.80;;;;;;;20.59;75.64;100728.34;8278487;28;20049;-53
2022/08/28 00:30:33;;;;;;;6.63;1.60;;;;;;;20.56;75.09;100730.66;8280899;28;20048;-52
2022/08/28 00:34:56;;;;;;;7.97;1.77;;;;;;;20.52;75.64;100740.34;8278895;28;20035;-53
2022/08/28 00:39:18;;;;;;;8.63;1.77;;;;;;;20.46;75.70;100741.97;8283354;28;20087;-54
2022/08/28 00:43:40;;;;;;;7.45;1.38;;;;;;;20.46;75.83;100738.41;8279293;28;20048;-53
2022/08/28 00:47:59;;;;;;;10.55;1.95;;;;;;;20.47;75.31;100748.31;8286590;28;20057;-53
2022/08/28 00:52:19;;;;;;;7.85;1.92;;;;;;;20.45;75.00;100739.44;8280410;28;20074;-53
2022/08/28 00:56:41;;;;;;;12.27;1.67;;;;;;;20.44;75.12;100748.72;8242953;28;20026;-53
2022/08/28 01:01:01;;;;;;;4.40;1.10;;;;;;;20.39;75.11;100751.22;8256350;28;20500;-50
2022/08/28 01:05:24;;;;;;;4.90;1.33;;;;;;;20.35;74.67;100747.16;8286799;28;20030;-54
2022/08/28 01:09:46;;;;;;;6.20;1.25;;;;;;;20.32;74.94;100750.31;8288576;28;20050;-53
2022/08/28 01:14:07;;;;;;;6.25;1.42;;;;;;;20.34;74.51;100761.97;8288858;28;20038;-53
2022/08/28 01:18:32;;;;;;;8.52;1.50;;;;;;;20.28;74.27;100754.50;8289238;28;20419;-53
2022/08/28 01:23:06;;;;;;;8.45;1.63;;;;;;;20.24;74.29;100761.41;8285704;28;20029;-54
2022/08/28 01:27:28;;;;;;;6.32;1.40;;;;;;;20.19;74.16;100747.44;8286869;28;20038;-47
2022/08/28 01:31:48;;;;;;;8.63;1.15;;;;;;;20.12;74.29;100750.13;8288296;28;20431;-49
2022/08/28 01:36:13;;;;;;;6.45;1.30;;;;;;;20.11;74.39;100748.41;8288945;28;20065;-50
2022/08/28 01:40:34;;;;;;;7.05;1.45;;;;;;;20.06;74.52;100745.38;8284514;28;20053;-46
2022/08/28 01:44:53;;;;;;;4.70;1.25;;;;;;;20.06;74.76;100744.56;8279686;28;20038;-54
2022/08/28 01:49:16;;;;;;;4.28;0.90;;;;;;;20.03;74.72;100750.44;8277292;28;20446;-52
2022/08/28 01:53:36;;;;;;;6.50;1.33;;;;;;;19.95;75.21;100742.31;8286245;28;20402;-53
2022/08/28 01:57:56;;;;;;;11.65;1.35;;;;;;;19.92;74.96;100737.22;8287077;28;20034;-53
2022/08/28 02:02:19;;;;;;;16.48;1.75;;;;;;;19.87;75.28;100746.03;8286813;28;20571;-51
2022/08/28 02:06:40;;;;;;;;;;;;;;;19.82;75.48;100748.50;8289950;28;20053;-51
2022/08/28 02:11:01;;;;;;;6.28;1.13;;;;;;;19.78;75.46;100746.34;8293992;28;19914;-53
2022/08/28 02:15:21;;;;;;;8.07;1.17;;;;;;;19.74;75.57;100753.28;8293442;28;20034;-52
2022/08/28 02:19:41;;;;;;;8.93;1.30;;;;;;;19.69;75.70;100748.34;8293054;28;20572;-54
2022/08/28 02:24:03;;;;;;;12.27;1.17;;;;;;;19.64;76.07;100766.44;8294122;28;20041;-52
2022/08/28 02:28:22;;;;;;;6.18;1.23;;;;;;;19.62;76.35;100763.03;8293306;28;20515;-54
2022/08/28 02:32:42;;;;;;;4.25;1.38;;;;;;;19.57;76.43;100769.09;8287237;28;20034;-53
2022/08/28 02:37:06;;;;;;;10.27;1.90;;;;;;;19.45;76.79;100763.28;8276576;28;20046;-53
2022/08/28 02:41:25;;;;;;;8.73;1.50;;;;;;;19.41;76.98;100772.94;8281771;28;20547;-53
2022/08/28 02:45:45;;;;;;;6.65;1.48;;;;;;;19.33;77.10;100775.75;8286957;28;20045;-46
2022/08/28 02:50:06;;;;;;;6.70;1.60;;;;;;;19.24;77.35;100781.50;8292524;28;20442;-51
2022/08/28 02:54:26;;;;;;;10.15;1.42;;;;;;;19.17;77.66;100775.06;8293248;28;20049;-50
2022/08/28 02:58:48;;;;;;;7.35;1.88;;;;;;;19.07;78.21;100764.41;8288528;28;20096;-47
2022/08/28 03:03:08;;;;;;;10.10;1.60;;;;;;;18.96;78.62;100769.50;8292541;28;20030;-47
2022/08/28 03:07:29;;;;;;;8.38;2.35;;;;;;;18.87;78.66;100771.47;8292680;28;20446;-48
2022/08/28 03:11:52;;;;;;;7.43;1.80;;;;;;;18.83;78.67;100770.16;8292007;28;20530;-49
2022/08/28 03:16:10;;;;;;;9.15;2.15;;;;;;;18.83;78.47;100772.03;8259675;28;20034;-47
2022/08/28 03:20:31;;;;;;;11.05;2.78;;;;;;;18.82;78.37;100776.66;8290716;28;20038;-48
2022/08/28 03:24:51;;;;;;;9.68;2.75;;;;;;;18.78;78.02;100769.88;8265296;28;20403;-49
2022/08/28 03:29:12;;;;;;;10.25;2.20;;;;;;;18.68;78.40;100772.03;8242634;28;20500;-47
2022/08/28 03:33:32;;;;;;;10.02;2.78;;;;;;;18.67;78.30;100781.25;8292583;28;20037;-47
2022/08/28 03:37:52;;;;;;;12.20;2.72;;;;;;;18.64;78.35;100784.41;8292282;28;20040;-47
2022/08/28 03:42:16;;;;;;;8.02;2.30;;;;;;;18.59;78.42;100789.59;8291450;28;20034;-50
2022/08/28 03:46:38;;;;;;;12.80;3.33;;;;;;;18.53;78.78;100793.06;8285076;28;20036;-49
2022/08/28 03:50:59;;;;;;;10.63;3.08;;;;;;;18.50;78.67;100793.44;8278061;28;20034;-49
2022/08/28 03:55:18;;;;;;;9.07;3.00;;;;;;;18.48;78.78;100800.97;8290964;28;20038;-50
2022/08/28 03:59:40;;;;;;;10.98;3.80;;;;;;;18.26;79.76;100800.94;8290197;28;20038;-50
2022/08/28 04:04:00;;;;;;;14.07;3.08;;;;;;;18.17;80.21;100802.91;8287992;28;20045;-47
2022/08/28 04:08:21;;;;;;;15.07;3.65;;;;;;;18.08;80.54;100809.47;8289825;28;20038;-48
2022/08/28 04:12:42;;;;;;;13.75;3.70;;;;;;;18.00;80.85;100806.81;8282971;28;20685;-47
2022/08/28 04:17:06;;;;;;;11.80;3.33;;;;;;;17.85;81.38;100807.75;8287406;28;20373;-53
2022/08/28 04:21:27;;;;;;;11.63;3.50;;;;;;;17.80;81.68;100816.50;8289547;28;20049;-53
2022/08/28 04:25:47;;;;;;;11.35;3.70;;;;;;;17.70;81.88;100815.88;8235751;28;20358;-46
2022/08/28 04:30:08;;;;;;;10.43;3.10;;;;;;;17.63;82.23;100815.72;8291783;28;20451;-47
2022/08/28 04:34:29;;;;;;;10.57;3.70;;;;;;;17.59;82.68;100830.78;8290114;28;20137;-48
2022/08/28 04:38:49;;;;;;;11.07;3.83;;;;;;;17.48;82.86;100827.59;8289383;28;20050;-51
2022/08/28 04:43:10;;;;;;;13.02;4.43;;;;;;;17.43;83.37;100836.34;8256705;28;20042;-48
2022/08/28 04:47:30;;;;;;;9.18;3.65;;;;;;;17.41;83.57;100834.75;8288619;28;20117;-49
2022/08/28 04:51:51;;;;;;;14.63;4.18;;;;;;;17.38;83.68;100832.38;8289077;28;20053;-48
2022/08/28 04:56:12;;;;;;;17.33;4.30;;;;;;;17.32;84.07;100841.28;8283932;28;20037;-56
2022/08/28 05:00:32;;;;;;;12.38;3.97;;;;;;;17.30;83.99;100846.91;8284621;28;20046;-53
2022/08/28 05:04:55;;;;;;;16.08;3.95;;;;;;;17.32;84.23;100849.47;8265120;28;20046;-52
2022/08/28 05:09:17;;;;;;;21.20;4.95;;;;;;;17.33;84.39;100851.19;8255403;28;20045;-54
2022/08/28 05:13:38;;;;;;;18.50;5.00;;;;;;;17.36;83.84;100851.69;8260224;28;20065;-49
2022/08/28 05:17:58;;;;;;;13.45;4.10;;;;;;;17.43;84.04;100851.88;8287688;28;20491;-54
2022/08/28 05:22:22;;;;;;;16.02;4.32;;;;;;;17.52;83.51;100853.56;8287229;28;20169;-50
2022/08/28 05:26:46;;;;;;;15.57;4.23;;;;;;;17.53;83.42;100867.03;8288935;28;20045;-52
2022/08/28 05:31:07;;;;;;;16.98;4.55;;;;;;;17.58;83.00;100861.03;8288157;28;20096;-48
2022/08/28 05:35:27;;;;;;;12.43;4.45;;;;;;;17.62;82.95;100867.84;8288835;28;20044;-48
2022/08/28 05:39:48;;;;;;;14.57;4.22;;;;;;;17.67;82.81;100875.53;8288336;28;20034;-49
2022/08/28 05:44:09;;;;;;;16.27;4.18;;;;;;;17.71;82.71;100882.38;8293735;28;20037;-47
2022/08/28 05:48:30;;;;;;;15.05;4.43;;;;;;;17.77;82.26;100892.56;8294267;28;20037;-50
2022/08/28 05:52:51;;;;;;;22.63;6.03;;;;;;;17.89;81.95;100885.69;8284449;28;20042;-46
2022/08/28 05:57:14;;;;;;;13.43;4.05;;;;;;;17.92;81.58;100891.66;8284565;28;20052;-47
2022/08/28 06:01:35;;;;;;;12.23;3.88;;;;;;;17.94;81.37;100895.06;8293001;28;20049;-47
2022/08/28 06:05:55;;;;;;;13.77;4.10;;;;;;;17.99;80.95;100892.63;8293759;28;20065;-52
2022/08/28 06:10:20;;;;;;;10.13;3.95;;;;;;;18.02;81.06;100880.50;8245850;28;20043;-54
2022/08/28 06:14:40;;;;;;;16.55;4.18;;;;;;;18.05;80.74;100891.91;8250675;28;20034;-54
2022/08/28 06:19:00;;;;;;;22.77;4.75;;;;;;;18.07;81.00;100900.81;8258059;28;20050;-54
2022/08/28 06:23:20;;;;;;;15.90;4.20;;;;;;;18.13;80.73;100902.84;8294047;28;20038;-53
2022/08/28 06:27:40;;;;;;;17.70;4.72;;;;;;;18.19;80.54;100904.84;8287833;28;20040;-53
2022/08/28 06:32:03;;;;;;;16.70;4.10;;;;;;;18.24;80.42;100907.88;8293578;28;20092;-53
2022/08/28 06:36:23;;;;;;;11.23;3.45;;;;;;;18.35;80.12;100906.63;8290686;28;20499;-53
2022/08/28 06:40:44;;;;;;;10.73;4.15;;;;;;;18.44;79.83;100911.91;8287681;28;20049;-51
2022/08/28 06:45:04;;;;;;;14.43;4.30;;;;;;;18.51;79.37;100920.25;8273840;28;20038;-53
2022/08/28 06:49:27;;;;;;;12.73;3.50;;;;;;;18.61;78.76;100919.00;8280185;28;20484;-53
2022/08/28 06:53:47;;;;;;;14.37;5.00;;;;;;;18.63;78.75;100919.63;8279257;28;20037;-52
2022/08/28 06:58:08;;;;;;;16.67;4.47;;;;;;;18.73;78.46;100930.34;8280988;28;20451;-52
2022/08/28 07:02:32;;;;;;;19.77;4.47;;;;;;;18.75;78.61;100928.28;8277197;28;20048;-53
2022/08/28 07:06:57;;;;;;;15.50;3.95;;;;;;;18.82;78.28;100926.53;8286284;28;20035;-53
2022/08/28 07:11:17;;;;;;;;;;;;;;;19.06;77.25;100921.66;8287114;28;20041;-53
2022/08/28 07:15:36;;;;;;;11.57;3.30;;;;;;;19.33;76.74;100918.34;8258483;28;20447;-53
2022/08/28 07:19:58;;;;;;;10.77;3.55;;;;;;;19.33;75.92;100929.31;8255869;28;20046;-50
2022/08/28 07:24:18;;;;;;;12.57;3.00;;;;;;;19.39;75.65;100927.72;8287327;28;20038;-53
2022/08/28 07:28:38;;;;;;;10.57;3.08;;;;;;;19.34;75.62;100927.44;8265226;28;20507;-51
2022/08/28 07:32:59;;;;;;;12.85;2.92;;;;;;;19.73;75.19;100940.91;8278101;28;20038;-52
2022/08/28 07:37:23;;;;;;;12.77;3.60;;;;;;;19.68;74.27;100937.84;8269120;28;20048;-53
2022/08/28 07:41:43;;;;;;;12.90;2.78;;;;;;;19.66;74.20;100945.41;8286365;28;20121;-52
2022/08/28 07:46:05;;;;;;;12.52;2.25;;;;;;;19.71;74.09;100951.19;8290947;28;20042;-53
2022/08/28 07:50:26;;;;;;;12.93;2.85;;;;;;;19.81;74.55;100955.38;8257491;28;20046;-53
2022/08/28 07:54:46;;;;;;;12.55;2.83;;;;;;;19.85;74.21;100950.38;8289532;28;20426;-53
2022/08/28 07:59:06;;;;;;;11.27;2.85;;;;;;;20.06;73.10;100956.75;8284006;28;20053;-53
2022/08/28 08:03:26;;;;;;;12.75;3.17;;;;;;;19.99;73.30;100961.31;8284794;28;20034;-54
2022/08/28 08:07:48;;;;;;;8.50;2.50;;;;;;;20.10;72.63;100960.00;8287784;28;20121;-52
2022/08/28 08:12:13;;;;;;;10.15;2.75;;;;;;;20.17;72.17;100964.56;8283709;28;20132;-53
2022/08/28 08:16:34;;;;;;;17.35;4.30;;;;;;;20.30;71.81;100961.97;8285727;28;20411;-54
2022/08/28 08:20:54;;;;;;;10.32;2.83;;;;;;;20.60;70.99;100960.88;8282583;28;20042;-53
2022/08/28 08:25:14;;;;;;;8.90;2.78;;;;;;;20.73;70.37;100968.38;8277650;28;20049;-54
2022/08/28 08:29:37;;;;;;;13.23;2.72;;;;;;;20.79;69.94;100967.59;8286137;28;20402;-54
2022/08/28 08:33:57;;;;;;;11.48;2.80;;;;;;;20.71;69.29;100967.75;8276747;28;20499;-54
2022/08/28 08:38:17;;;;;;;13.40;2.90;;;;;;;20.63;69.70;100974.22;8280901;28;20064;-54
2022/08/28 08:42:46;;;;;;;10.10;2.60;;;;;;;20.73;69.44;100976.63;8283794;28;20133;-52
2022/08/28 08:47:09;;;;;;;10.98;3.00;;;;;;;20.78;69.42;100979.66;8284342;28;20041;-52
2022/08/28 08:51:34;;;;;;;8.65;2.72;;;;;;;20.81;68.58;100987.50;8282139;28;20471;-52
2022/08/28 08:56:22;;;;;;;17.63;2.30;;;;;;;20.70;69.11;100986.13;8285847;28;20042;-50
2022/08/28 09:00:41;;;;;;;12.85;3.10;;;;;;;20.81;68.92;100988.38;8279540;28;20086;-49
2022/08/28 09:05:29;;;;;;;14.82;3.05;;;;;;;20.91;68.23;100993.53;8284486;28;20034;-48
2022/08/28 09:09:57;;;;;;;7.88;2.65;;;;;;;21.17;67.00;100993.84;8281371;28;20045;-51
2022/08/28 09:14:25;;;;;;;11.80;3.22;;;;;;;21.31;67.41;100992.88;8284243;28;20038;-49
2022/08/28 09:18:50;;;;;;;9.70;2.10;;;;;;;21.46;66.12;100999.16;8290787;28;20041;-49
2022/08/28 09:23:12;;;;;;;8.55;2.45;;;;;;;21.59;65.45;100999.25;8293620;28;20069;-51
2022/08/28 09:27:31;;;;;;;7.85;2.10;;;;;;;21.65;65.48;101009.47;8292028;28;20046;-51
2022/08/28 09:32:01;;;;;;;12.88;2.78;;;;;;;21.95;64.35;101012.88;8293256;28;20079;-51
2022/08/28 09:36:28;;;;;;;8.70;2.47;;;;;;;21.77;64.79;101007.06;8291777;28;20037;-48
2022/08/28 09:45:15;;;;;;;9.10;2.35;;;;;;;23.76;59.78;101003.50;8272697;28;20077;-52
2022/08/28 09:49:39;;;;;;;8.65;2.00;;;;;;;25.16;56.46;100997.03;8280754;28;20125;-52
2022/08/28 09:54:19;;;;;;;8.32;2.40;;;;;;;27.03;52.55;100997.16;8261657;28;20096;-50
2022/08/28 09:58:43;;;;;;;11.23;2.35;;;;;;;27.10;51.97;100994.28;8278121;28;20049;-48
2022/08/28 10:03:22;;;;;;;9.30;2.40;;;;;;;27.77;50.78;101000.25;8264765;28;20061;-48
2022/08/28 10:07:53;;;;;;;7.90;2.47;;;;;;;28.06;50.36;100987.34;8283712;28;20046;-50
2022/08/28 10:12:53;;;;;;;9.65;2.78;;;;;;;28.85;47.95;100981.84;8287950;28;20044;-47
2022/08/28 10:17:28;;;;;;;8.18;2.15;;;;;;;28.24;47.23;100990.81;8282208;28;20034;-49
2022/08/28 10:26:15;;;;;;;12.98;2.65;;;;;;;27.58;48.77;100983.91;8404341;27;20379;-51
2022/08/28 10:31:06;;;;;;;10.13;2.60;;;;;;;28.21;48.12;100979.34;8371094;28;20166;-49
2022/08/28 10:35:56;;;;;;;8.45;2.00;;;;;;;28.37;47.54;100979.44;8372835;28;20294;-47
2022/08/28 10:40:47;;;;;;;6.68;2.03;;;;;;;27.26;49.35;100975.03;8372039;28;20048;-47
2022/08/28 10:45:10;;;;;;;7.78;1.60;;;;;;;27.84;47.77;100975.94;8366811;28;20043;-48
2022/08/28 10:49:41;;;;;;;7.45;2.17;;;;;;;27.92;47.19;100974.75;8366526;28;20140;-48
2022/08/28 10:54:08;;;;;;;9.68;2.20;;;;;;;28.53;46.25;100967.56;8372512;28;20033;-50
2022/08/28 10:58:44;;;;;;;9.25;2.10;;;;;;;28.69;45.31;100982.63;8370834;28;20029;-47
2022/08/28 11:03:09;;;;;;;6.18;1.88;;;;;;;28.17;46.43;100978.13;8369967;28;20127;-49
2022/08/28 11:07:57;;;;;;;8.20;2.60;;;;;;;27.09;48.13;100978.72;8372357;28;20041;-47
2022/08/28 11:12:41;;;;;;;6.90;1.83;;;;;;;26.92;48.20;100977.69;8385209;28;20065;-47
2022/08/28 11:17:11;;;;;;;4.57;1.70;;;;;;;27.59;47.23;100969.78;8352755;28;20332;-48
2022/08/28 11:21:33;;;;;;;8.43;2.17;;;;;;;28.60;45.63;100973.81;8357862;28;20044;-48
2022/08/28 11:26:02;;;;;;;10.15;2.30;;;;;;;29.06;44.52;100977.53;8356674;28;20044;-48
2022/08/28 11:31:02;;;;;;;9.90;2.13;;;;;;;28.06;46.15;100976.22;8355770;28;20053;-48
2022/08/28 11:35:58;;;;;;;8.45;2.08;;;;;;;28.33;45.90;100978.22;8352495;28;20548;-48
2022/08/28 11:40:20;;;;;;;9.65;2.58;;;;;;;29.16;44.93;100977.72;8349075;28;20045;-49
2022/08/28 11:44:44;;;;;;;4.68;1.80;;;;;;;28.85;44.77;100990.19;8342426;28;20038;-53
2022/08/28 11:49:04;;;;;;;8.57;2.28;;;;;;;28.68;44.81;100983.72;8331532;28;20045;-52
2022/08/28 11:53:44;;;;;;;8.45;2.15;;;;;;;28.97;44.77;100971.47;8326984;28;20071;-53
2022/08/28 11:58:14;;;;;;;6.95;2.03;;;;;;;28.77;44.34;100964.66;8328411;28;20041;-53
2022/08/28 12:02:35;;;;;;;6.07;1.92;;;;;;;27.00;46.83;100980.13;8339145;28;20120;-51
2022/08/28 12:06:58;;;;;;;8.40;2.08;;;;;;;26.00;47.92;100983.53;8293370;28;20408;-51
2022/08/28 12:15:43;;;;;;;6.72;1.73;;;;;;;24.61;50.78;100976.44;8386931;27;20910;-49
2022/08/28 12:20:05;;;;;;;5.30;1.90;;;;;;;24.42;51.14;100971.84;8375707;28;20036;-48
2022/08/28 12:28:53;;;;;;;8.10;1.85;;;;;;;24.37;51.34;100973.59;8317953;27;20367;-48
2022/08/28 12:37:45;;;;;;;8.88;1.70;;;;;;;24.54;51.28;100958.19;8388444;27;20350;-48
2022/08/28 12:42:14;;;;;;;6.93;1.98;;;;;;;24.22;51.77;100956.44;8365844;28;20406;-48
2022/08/28 12:46:59;;;;;;;5.03;1.92;;;;;;;24.44;52.16;100952.28;8368551;28;20032;-52
2022/08/28 12:51:38;;;;;;;8.95;2.17;;;;;;;24.22;52.53;100943.47;8361897;28;20116;-51
2022/08/28 12:55:58;;;;;;;5.65;2.00;;;;;;;24.28;52.60;100952.78;8354322;28;20485;-52
2022/08/28 13:00:23;;;;;;;8.25;1.90;;;;;;;24.47;50.77;100947.19;8361038;28;20170;-50
2022/08/28 13:04:49;;;;;;;5.70;2.03;;;;;;;24.60;52.70;100946.25;8358561;28;20041;-49
2022/08/28 13:09:11;;;;;;;11.35;2.15;;;;;;;24.70;51.22;100941.13;8365923;28;20036;-52
2022/08/28 13:13:35;;;;;;;6.85;2.00;;;;;;;24.32;50.57;100940.22;8362202;28;20033;-52
2022/08/28 13:17:55;;;;;;;5.95;1.75;;;;;;;24.35;51.32;100937.03;8353562;28;20037;-49
2022/08/28 13:22:21;;;;;;;8.50;1.92;;;;;;;24.33;50.54;100933.63;8382576;28;20029;-51
2022/08/28 13:26:41;;;;;;;6.15;2.00;;;;;;;24.31;51.09;100913.66;8363232;28;20037;-53
2022/08/28 13:31:22;;;;;;;5.10;1.58;;;;;;;24.57;50.87;100928.19;8354319;28;20029;-49
2022/08/28 13:36:01;;;;;;;11.25;2.10;;;;;;;24.57;50.85;100924.56;8353880;28;20128;-52
2022/08/28 13:40:22;;;;;;;4.72;1.70;;;;;;;24.41;50.17;100930.59;8348833;28;20116;-50
2022/08/28 13:44:46;;;;;;;5.90;1.85;;;;;;;24.35;51.58;100928.72;8362062;28;20473;-51
2022/08/28 13:49:06;;;;;;;;;;;;;;;24.22;51.88;100921.38;8346688;28;20059;-51
2022/08/28 13:53:26;;;;;;;9.55;1.90;;;;;;;24.43;50.14;100917.44;8339804;28;19913;-49
2022/08/28 13:57:46;;;;;;;7.45;1.58;;;;;;;24.40;50.32;100904.88;8335962;28;20025;-50
2022/08/28 14:06:28;;;;;;;8.73;2.13;;;;;;;24.79;50.77;100901.03;8339340;28;20044;-50
2022/08/28 14:10:48;;;;;;;6.28;2.03;;;;;;;24.78;50.16;100899.34;8331707;28;20052;-50
2022/08/28 14:15:10;;;;;;;6.03;1.75;;;;;;;24.61;50.53;100898.19;8327583;28;20051;-50
2022/08/28 14:19:30;;;;;;;5.22;1.88;;;;;;;24.61;50.77;100892.66;8354453;28;20057;-53
2022/08/28 14:23:51;;;;;;;4.93;1.55;;;;;;;24.80;50.14;100880.63;8346638;28;20225;-53
2022/08/28 14:28:13;;;;;;;3.25;1.25;;;;;;;24.66;50.18;100888.16;8351556;28;20593;-50
2022/08/28 14:32:32;;;;;;;7.28;1.67;;;;;;;24.55;50.21;100894.38;8328995;28;20026;-52
2022/08/28 14:36:55;;;;;;;4.78;1.42;;;;;;;24.45;49.89;100891.25;8330357;28;20048;-52
2022/08/28 14:41:13;;;;;;;5.22;1.60;;;;;;;24.61;50.72;100895.41;8331347;28;20068;-51
2022/08/28 14:45:32;;;;;;;7.88;1.98;;;;;;;24.61;50.54;100890.72;8344623;28;20105;-50
2022/08/28 14:49:56;;;;;;;3.72;1.35;;;;;;;24.84;49.85;100887.41;8332211;28;20041;-50
2022/08/28 14:54:16;;;;;;;6.88;1.58;;;;;;;24.76;49.78;100890.44;8327081;28;20029;-53
2022/08/28 14:58:39;;;;;;;7.18;1.50;;;;;;;24.65;49.77;100885.63;8326603;28;20455;-49
2022/08/28 15:03:00;;;;;;;5.17;1.93;;;;;;;24.72;49.72;100878.13;8363547;28;20040;-51
2022/08/28 15:07:21;;;;;;;5.72;1.70;;;;;;;24.68;49.77;100887.94;8338629;28;20772;-50
2022/08/28 15:11:43;;;;;;;5.72;1.50;;;;;;;24.70;48.54;100891.34;8330485;28;20061;-52
2022/08/28 15:16:04;;;;;;;4.32;1.40;;;;;;;24.52;49.90;100885.69;8334815;28;20045;-52
2022/08/28 15:20:24;;;;;;;6.00;1.60;;;;;;;24.48;50.48;100882.50;8354446;28;20037;-50
2022/08/28 15:24:45;;;;;;;2.95;1.50;;;;;;;24.63;50.20;100879.44;8330484;28;20480;-50
2022/08/28 15:29:06;;;;;;;7.45;1.88;;;;;;;24.65;49.61;100880.09;8337622;28;20094;-52
2022/08/28 15:33:26;;;;;;;6.30;1.85;;;;;;;24.74;49.14;100881.53;8333650;28;20399;-51
2022/08/28 15:37:47;;;;;;;4.07;1.55;;;;;;;24.65;49.61;100878.19;8334184;28;20060;-52
2022/08/28 15:42:08;;;;;;;4.65;1.33;;;;;;;24.78;49.43;100878.09;8327778;28;20071;-49
2022/08/28 15:46:28;;;;;;;5.90;1.65;;;;;;;24.69;49.28;100879.44;8336534;28;20037;-48
2022/08/28 15:50:53;;;;;;;5.53;1.40;;;;;;;24.74;49.43;100878.75;8324932;28;20049;-51
2022/08/28 15:55:16;;;;;;;7.65;1.42;;;;;;;24.44;49.68;100877.63;8329111;28;20502;-51
2022/08/28 15:59:38;;;;;;;5.18;1.35;;;;;;;24.63;49.73;100873.91;8329722;28;20186;-51
2022/08/28 16:03:58;;;;;;;4.47;1.42;;;;;;;24.71;50.07;100870.91;8328113;28;20043;-50
2022/08/28 16:08:20;;;;;;;7.45;1.38;;;;;;;24.66;50.03;100871.56;8336739;28;20272;-51
2022/08/28 16:12:41;;;;;;;5.80;1.45;;;;;;;24.50;49.94;100874.00;8329533;28;20037;-51
2022/08/28 16:17:01;;;;;;;5.30;1.30;;;;;;;24.54;49.73;100865.03;8323098;28;20037;-51
2022/08/28 16:21:22;;;;;;;11.70;1.58;;;;;;;24.43;49.92;100862.13;8333375;28;20025;-48
2022/08/28 16:25:43;;;;;;;4.57;1.20;;;;;;;24.44;50.04;100859.16;8324089;28;20033;-48
2022/08/28 16:30:03;;;;;;;6.18;1.13;;;;;;;24.47;49.98;100864.22;8335350;28;20120;-48
2022/08/28 16:34:24;;;;;;;5.15;1.40;;;;;;;24.28;50.08;100870.69;8343599;28;20040;-51
2022/08/28 16:38:44;;;;;;;7.07;1.63;;;;;;;24.18;50.40;100869.50;8338814;28;20053;-51
2022/08/28 16:43:04;;;;;;;6.97;1.45;;;;;;;24.28;50.16;100869.88;8340865;28;20376;-47
2022/08/28 16:47:26;;;;;;;7.45;1.55;;;;;;;24.36;49.87;100866.84;8334019;28;20033;-46
2022/08/28 16:51:46;;;;;;;3.78;1.33;;;;;;;24.32;50.34;100865.59;8340760;28;20525;-48
2022/08/28 16:56:09;;;;;;;5.93;1.60;;;;;;;24.24;50.11;100863.09;8342723;28;20680;-47
2022/08/28 17:00:29;;;;;;;6.03;1.23;;;;;;;24.19;50.08;100858.25;8339951;28;20322;-47
2022/08/28 17:04:50;;;;;;;8.18;1.50;;;;;;;24.09;50.25;100854.25;8344156;28;20036;-47
2022/08/28 17:09:10;;;;;;;3.38;1.17;;;;;;;24.04;50.11;100865.97;8341080;28;20040;-46
2022/08/28 17:13:30;;;;;;;3.83;1.38;;;;;;;24.01;50.38;100862.78;8331606;28;20029;-48
2022/08/28 17:17:52;;;;;;;2.78;1.60;;;;;;;23.94;50.12;100861.94;8333385;28;20041;-48
2022/08/28 17:22:43;;;;;;;8.63;1.65;;;;;;;23.87;50.78;100869.38;8326505;28;20033;-47
2022/08/28 17:26:32;;;;;;;7.93;1.67;;;;;;;23.80;50.84;100869.41;8336911;28;20127;-47
2022/08/28 17:30:54;;;;;;;5.80;1.58;;;;;;;23.78;50.88;100873.47;8339865;28;20064;-47
2022/08/28 17:35:14;;;;;;;4.63;1.10;;;;;;;23.60;51.47;100876.06;8338763;28;20055;-47
2022/08/28 17:39:35;;;;;;;3.33;1.38;;;;;;;23.57;51.56;100871.81;8328541;28;20053;-48
2022/08/28 17:43:55;;;;;;;6.30;1.50;;;;;;;23.48;51.52;100877.78;8335158;28;20045;-50
2022/08/28 17:48:15;;;;;;;4.72;1.38;;;;;;;23.42;52.14;100873.13;8329703;28;20068;-51
2022/08/28 17:52:36;;;;;;;5.18;1.50;;;;;;;23.31;52.16;100876.53;8341096;28;20053;-54
2022/08/28 17:56:57;;;;;;;8.43;1.65;;;;;;;23.21;52.68;100888.81;8346164;28;20048;-50
2022/08/28 18:01:17;;;;;;;4.03;1.25;;;;;;;23.10;52.46;100881.19;8341301;28;20068;-51
2022/08/28 18:05:37;;;;;;;6.22;1.55;;;;;;;23.02;52.64;100886.91;8334393;28;20044;-52
2022/08/28 18:09:58;;;;;;;5.32;1.20;;;;;;;22.91;52.86;100890.31;8324855;28;20498;-53
2022/08/28 18:14:19;;;;;;;5.63;1.42;;;;;;;22.77;53.38;100891.38;8324993;28;20517;-52
2022/08/28 18:18:40;;;;;;;5.43;1.80;;;;;;;22.57;53.78;100893.22;8332470;28;20041;-52
2022/08/28 18:23:00;;;;;;;5.75;1.20;;;;;;;22.40;54.54;100894.66;8332313;28;20467;-54
2022/08/28 18:27:21;;;;;;;6.72;1.83;;;;;;;22.26;54.75;100898.41;8331510;28;20488;-53
2022/08/28 18:31:44;;;;;;;7.13;1.38;;;;;;;22.22;54.89;100907.31;8331978;28;20518;-51
2022/08/28 18:36:05;;;;;;;9.52;1.42;;;;;;;22.14;55.42;100908.31;8322399;28;20045;-51
2022/08/28 18:40:25;;;;;;;5.57;1.08;;;;;;;22.05;55.48;100906.81;8367112;28;20455;-52
2022/08/28 18:44:46;;;;;;;6.05;1.33;;;;;;;21.97;55.94;100915.25;8332373;28;20124;-50
2022/08/28 18:49:07;;;;;;;7.68;1.23;;;;;;;21.91;55.89;100918.84;8343050;28;20505;-51
2022/08/28 18:53:28;;;;;;;4.85;1.77;;;;;;;21.86;55.96;100931.53;8338822;28;20046;-51
2022/08/28 18:57:47;;;;;;;3.40;1.20;;;;;;;21.71;56.33;100931.59;8340356;28;20521;-53
2022/08/28 19:02:09;;;;;;;4.30;1.38;;;;;;;21.61;56.60;100933.00;8345482;28;20030;-52
2022/08/28 19:06:30;;;;;;;2.78;1.13;;;;;;;21.51;56.58;100941.63;8346217;28;20506;-53
2022/08/28 19:10:50;;;;;;;4.25;1.52;;;;;;;21.43;56.90;100941.78;8346731;28;20044;-52
2022/08/28 19:15:11;;;;;;;6.65;1.80;;;;;;;21.33;57.13;100949.53;8335242;28;20122;-53
2022/08/28 19:19:31;;;;;;;4.70;1.83;;;;;;;21.21;57.14;100956.63;8336212;28;20142;-51
2022/08/28 19:23:51;;;;;;;9.02;2.08;;;;;;;21.12;57.60;100964.19;8319278;28;20041;-52
2022/08/28 19:28:12;;;;;;;5.25;2.10;;;;;;;21.01;57.78;100966.56;8338492;28;20044;-51
2022/08/28 19:32:32;;;;;;;7.00;1.75;;;;;;;21.01;57.68;100966.56;8345187;28;20041;-52
2022/08/28 19:36:53;;;;;;;4.22;1.30;;;;;;;20.92;58.05;100962.25;8342205;28;20043;-51
2022/08/28 19:41:13;;;;;;;7.30;1.95;;;;;;;20.78;58.33;100965.91;8341664;28;20124;-49
2022/08/28 19:45:38;;;;;;;8.35;1.67;;;;;;;20.69;58.35;100962.44;8339785;28;20317;-53
2022/08/28 19:49:58;;;;;;;8.32;1.73;;;;;;;20.68;58.34;100971.72;8335863;28;20041;-53
2022/08/28 19:54:19;;;;;;;7.97;1.40;;;;;;;20.56;58.83;100973.25;8347685;28;20045;-52
2022/08/28 19:58:38;;;;;;;7.28;1.88;;;;;;;20.50;58.94;100985.06;8342590;28;20037;-51
2022/08/28 20:02:59;;;;;;;8.50;1.52;;;;;;;20.45;59.16;100992.16;8334252;28;20042;-53
2022/08/28 20:07:20;;;;;;;7.07;1.67;;;;;;;20.38;59.30;100985.72;8335723;28;20483;-53
2022/08/28 20:11:41;;;;;;;2.30;1.27;;;;;;;20.33;59.34;100993.69;8340034;28;20033;-53
2022/08/28 20:16:00;;;;;;;4.55;1.45;;;;;;;20.20;59.72;100999.88;8339409;28;20079;-53
2022/08/28 20:20:21;;;;;;;7.45;2.05;;;;;;;20.14;59.91;101002.53;8337931;28;20049;-55
2022/08/28 20:24:42;;;;;;;6.30;1.98;;;;;;;20.06;59.97;101008.09;8340784;28;20033;-50
2022/08/28 20:29:03;;;;;;;5.68;1.52;;;;;;;19.96;60.27;101005.63;8340755;28;20040;-52
2022/08/28 20:33:24;;;;;;;3.38;1.70;;;;;;;19.81;60.46;101004.75;8337257;28;20041;-51
2022/08/28 20:37:45;;;;;;;5.85;2.13;;;;;;;19.83;60.71;101001.84;8333543;28;20049;-53
2022/08/28 20:42:10;;;;;;;11.18;1.92;;;;;;;19.85;60.42;101011.56;8339534;28;20333;-52
2022/08/28 20:46:31;;;;;;;8.38;1.58;;;;;;;19.82;60.17;101011.13;8335382;28;20195;-54